sensor_id;sensor_type;location;lat;lon;timestamp;pressure;altitude;pressure_sealevel;temperature;humidity
20119;BME280;10220;42.716;23.306;2023-08-07T00:00:04;94717.44;;;18.35;100.00
20119;BME280;10220;42.716;23.306;2023-08-07T00:02:29;94716.47;;;17.65;100.00
20119;BME280;10220;42.716;23.306;2023-08-07T00:04:55;94711.41;;;17.49;100.00
20119;BME280;10220;42.716;23.306;2023-08-07T00:10:28;94647.16;;;17.26;100.00
20119;BME280;10220;42.716;23.306;2023-08-07T00:12:53;94683.63;;;17.43;100.00
20119;BME280;10220;42.716;23.306;2023-08-07T00:15:19;94708.56;;;17.60;100.00
20119;BME280;10220;42.716;23.306;2023-08-07T00:17:44;94708.28;;;17.52;100.00
20119;BME280;10220;42.716;23.306;2023-08-07T00:20:10;94709.88;;;17.58;100.00
20119;BME280;10220;42.716;23.306;2023-08-07T00:22:35;94701.75;;;17.59;100.00
20119;BME280;10220;42.716;23.306;2023-08-07T00:25:01;94704.47;;;17.94;100.00
20119;BME280;10220;42.716;23.306;2023-08-07T00:27:26;94709.78;;;18.19;100.00
20119;BME280;10220;42.716;23.306;2023-08-07T00:29:52;94703.78;;;18.38;100.00
20119;BME280;10220;42.716;23.306;2023-08-07T00:32:17;94699.84;;;18.30;100.00
20119;BME280;10220;42.716;23.306;2023-08-07T00:34:43;94711.06;;;18.11;100.00
20119;BME280;10220;42.716;23.306;2023-08-07T00:37:08;94705.53;;;17.93;100.00
20119;BME280;10220;42.716;23.306;2023-08-07T00:39:33;94714.41;;;17.82;100.00
20119;BME280;10220;42.716;23.306;2023-08-07T00:41:59;94697.09;;;17.76;100.00
20119;BME280;10220;42.716;23.306;2023-08-07T00:44:24;94697.84;;;17.66;100.00
20119;BME280;10220;42.716;23.306;2023-08-07T00:46:50;94691.66;;;17.97;100.00
20119;BME280;10220;42.716;23.306;2023-08-07T00:49:15;94705.88;;;18.26;100.00
20119;BME280;10220;42.716;23.306;2023-08-07T00:51:43;94699.28;;;18.04;100.00
20119;BME280;10220;42.716;23.306;2023-08-07T00:54:10;94698.72;;;18.02;100.00
20119;BME280;10220;42.716;23.306;2023-08-07T00:56:36;94711.81;;;17.92;100.00
20119;BME280;10220;42.716;23.306;2023-08-07T00:59:02;94699.94;;;17.64;100.00
20119;BME280;10220;42.716;23.306;2023-08-07T01:01:28;94716.22;;;17.20;100.00
20119;BME280;10220;42.716;23.306;2023-08-07T01:03:54;94734.16;;;17.38;100.00
20119;BME280;10220;42.716;23.306;2023-08-07T01:06:20;94722.97;;;17.06;100.00
20119;BME280;10220;42.716;23.306;2023-08-07T01:08:46;94704.03;;;16.95;100.00
20119;BME280;10220;42.716;23.306;2023-08-07T01:13:54;94749.44;;;16.79;100.00
20119;BME280;10220;42.716;23.306;2023-08-07T01:16:31;94751.63;;;16.92;100.00
20119;BME280;10220;42.716;23.306;2023-08-07T01:19:00;94739.25;;;16.77;100.00
20119;BME280;10220;42.716;23.306;2023-08-07T01:21:26;94741.66;;;16.84;100.00
20119;BME280;10220;42.716;23.306;2023-08-07T01:23:52;94738.03;;;16.53;100.00
20119;BME280;10220;42.716;23.306;2023-08-07T01:26:18;94746.84;;;17.20;100.00
20119;BME280;10220;42.716;23.306;2023-08-07T01:29:12;94734.91;;;16.93;100.00
20119;BME280;10220;42.716;23.306;2023-08-07T01:31:36;94749.13;;;17.48;100.00
20119;BME280;10220;42.716;23.306;2023-08-07T01:34:08;94743.44;;;17.14;100.00
20119;BME280;10220;42.716;23.306;2023-08-07T01:36:38;94737.38;;;17.55;100.00
20119;BME280;10220;42.716;23.306;2023-08-07T01:39:05;94746.75;;;17.41;100.00
20119;BME280;10220;42.716;23.306;2023-08-07T01:41:32;94719.63;;;17.21;100.00
20119;BME280;10220;42.716;23.306;2023-08-07T01:43:58;94732.69;;;17.67;100.00
20119;BME280;10220;42.716;23.306;2023-08-07T01:46:24;94736.84;;;17.58;100.00
20119;BME280;10220;42.716;23.306;2023-08-07T01:48:49;94731.78;;;17.37;100.00
20119;BME280;10220;42.716;23.306;2023-08-07T01:51:15;94717.59;;;16.87;100.00
20119;BME280;10220;42.716;23.306;2023-08-07T01:53:40;94739.44;;;17.07;100.00
20119;BME280;10220;42.716;23.306;2023-08-07T01:56:06;94741.94;;;16.87;100.00
20119;BME280;10220;42.716;23.306;2023-08-07T01:58:31;94741.06;;;16.77;100.00
20119;BME280;10220;42.716;23.306;2023-08-07T02:00:57;94741.28;;;17.06;100.00
20119;BME280;10220;42.716;23.306;2023-08-07T02:03:22;94743.81;;;17.33;100.00
20119;BME280;10220;42.716;23.306;2023-08-07T02:05:48;94736.34;;;17.56;100.00
20119;BME280;10220;42.716;23.306;2023-08-07T02:08:14;94743.00;;;17.27;100.00
20119;BME280;10220;42.716;23.306;2023-08-07T02:10:39;94743.69;;;17.13;100.00
20119;BME280;10220;42.716;23.306;2023-08-07T02:13:05;94735.03;;;17.12;100.00
20119;BME280;10220;42.716;23.306;2023-08-07T02:15:30;94763.00;;;17.07;100.00
20119;BME280;10220;42.716;23.306;2023-08-07T02:17:55;94759.66;;;17.11;100.00
20119;BME280;10220;42.716;23.306;2023-08-07T02:20:21;94753.34;;;17.12;100.00
20119;BME280;10220;42.716;23.306;2023-08-07T02:22:46;94761.09;;;17.29;100.00
20119;BME280;10220;42.716;23.306;2023-08-07T02:25:12;94776.66;;;17.55;100.00
20119;BME280;10220;42.716;23.306;2023-08-07T02:27:38;94777.22;;;17.57;100.00
20119;BME280;10220;42.716;23.306;2023-08-07T02:30:04;94770.41;;;17.61;100.00
20119;BME280;10220;42.716;23.306;2023-08-07T02:32:30;94774.84;;;17.56;100.00
20119;BME280;10220;42.716;23.306;2023-08-07T02:34:56;94788.19;;;17.54;100.00
20119;BME280;10220;42.716;23.306;2023-08-07T02:37:21;94783.16;;;17.43;100.00
20119;BME280;10220;42.716;23.306;2023-08-07T02:39:47;94780.47;;;17.33;100.00
20119;BME280;10220;42.716;23.306;2023-08-07T02:42:12;94783.63;;;17.30;100.00
20119;BME280;10220;42.716;23.306;2023-08-07T02:44:38;94769.72;;;17.24;100.00
20119;BME280;10220;42.716;23.306;2023-08-07T02:47:03;94767.53;;;17.21;100.00
20119;BME280;10220;42.716;23.306;2023-08-07T02:49:29;94784.75;;;17.49;100.00
20119;BME280;10220;42.716;23.306;2023-08-07T02:51:54;94787.22;;;17.70;100.00
20119;BME280;10220;42.716;23.306;2023-08-07T02:54:20;94775.22;;;17.28;100.00
20119;BME280;10220;42.716;23.306;2023-08-07T02:56:45;94768.69;;;17.30;100.00
20119;BME280;10220;42.716;23.306;2023-08-07T02:59:10;94780.38;;;17.23;100.00
20119;BME280;10220;42.716;23.306;2023-08-07T03:01:36;94792.56;;;17.03;100.00
20119;BME280;10220;42.716;23.306;2023-08-07T03:04:01;94795.78;;;17.14;100.00
20119;BME280;10220;42.716;23.306;2023-08-07T03:06:27;94773.94;;;16.99;100.00
20119;BME280;10220;42.716;23.306;2023-08-07T03:08:52;94799.59;;;16.97;100.00
20119;BME280;10220;42.716;23.306;2023-08-07T03:11:17;94788.47;;;16.80;100.00
20119;BME280;10220;42.716;23.306;2023-08-07T03:13:43;94798.28;;;16.63;100.00
20119;BME280;10220;42.716;23.306;2023-08-07T03:16:09;94802.03;;;16.77;100.00
20119;BME280;10220;42.716;23.306;2023-08-07T03:18:36;94787.47;;;16.86;100.00
20119;BME280;10220;42.716;23.306;2023-08-07T03:21:01;94808.06;;;16.78;100.00
20119;BME280;10220;42.716;23.306;2023-08-07T03:23:27;94811.00;;;16.86;100.00
20119;BME280;10220;42.716;23.306;2023-08-07T03:26:07;94805.47;;;16.83;100.00
20119;BME280;10220;42.716;23.306;2023-08-07T03:28:34;94808.75;;;17.00;100.00
20119;BME280;10220;42.716;23.306;2023-08-07T03:30:59;94797.25;;;17.01;100.00
20119;BME280;10220;42.716;23.306;2023-08-07T03:33:25;94812.28;;;16.84;100.00
20119;BME280;10220;42.716;23.306;2023-08-07T03:35:50;94779.53;;;16.76;100.00
20119;BME280;10220;42.716;23.306;2023-08-07T03:38:15;94825.84;;;17.07;100.00
20119;BME280;10220;42.716;23.306;2023-08-07T03:40:41;94831.38;;;17.10;100.00
20119;BME280;10220;42.716;23.306;2023-08-07T03:43:06;94838.97;;;17.12;100.00
20119;BME280;10220;42.716;23.306;2023-08-07T03:45:32;94824.97;;;17.28;100.00
20119;BME280;10220;42.716;23.306;2023-08-07T03:47:57;94808.38;;;17.17;100.00
20119;BME280;10220;42.716;23.306;2023-08-07T03:50:22;94839.81;;;17.54;100.00
20119;BME280;10220;42.716;23.306;2023-08-07T03:52:48;94838.97;;;17.48;100.00
20119;BME280;10220;42.716;23.306;2023-08-07T03:55:13;94847.66;;;18.00;100.00
20119;BME280;10220;42.716;23.306;2023-08-07T03:57:39;94852.00;;;17.79;100.00
20119;BME280;10220;42.716;23.306;2023-08-07T04:00:05;94844.00;;;18.06;100.00
20119;BME280;10220;42.716;23.306;2023-08-07T04:02:30;94848.13;;;17.92;100.00
20119;BME280;10220;42.716;23.306;2023-08-07T04:04:56;94848.88;;;17.82;100.00
20119;BME280;10220;42.716;23.306;2023-08-07T04:07:22;94838.81;;;17.64;100.00
20119;BME280;10220;42.716;23.306;2023-08-07T04:09:47;94860.34;;;17.71;100.00
20119;BME280;10220;42.716;23.306;2023-08-07T04:12:13;94868.31;;;17.45;100.00
20119;BME280;10220;42.716;23.306;2023-08-07T04:14:38;94868.31;;;17.50;100.00
20119;BME280;10220;42.716;23.306;2023-08-07T04:17:04;94863.00;;;17.35;100.00
20119;BME280;10220;42.716;23.306;2023-08-07T04:19:29;94874.19;;;17.26;100.00
20119;BME280;10220;42.716;23.306;2023-08-07T04:21:55;94866.78;;;17.18;100.00
20119;BME280;10220;42.716;23.306;2023-08-07T04:24:20;94875.66;;;17.48;100.00
20119;BME280;10220;42.716;23.306;2023-08-07T04:26:46;94867.41;;;17.66;100.00
20119;BME280;10220;42.716;23.306;2023-08-07T04:29:11;94879.72;;;17.70;100.00
20119;BME280;10220;42.716;23.306;2023-08-07T04:31:37;94874.81;;;17.38;100.00
20119;BME280;10220;42.716;23.306;2023-08-07T04:34:02;94884.75;;;17.77;100.00
20119;BME280;10220;42.716;23.306;2023-08-07T04:36:28;94881.97;;;17.98;100.00
20119;BME280;10220;42.716;23.306;2023-08-07T04:38:53;94864.44;;;18.04;100.00
20119;BME280;10220;42.716;23.306;2023-08-07T04:41:20;94888.78;;;18.55;100.00
20119;BME280;10220;42.716;23.306;2023-08-07T04:43:46;94892.53;;;18.94;100.00
20119;BME280;10220;42.716;23.306;2023-08-07T04:46:13;94878.94;;;19.42;100.00
20119;BME280;10220;42.716;23.306;2023-08-07T04:48:40;94886.25;;;19.74;100.00
20119;BME280;10220;42.716;23.306;2023-08-07T04:51:06;94885.41;;;20.08;100.00
20119;BME280;10220;42.716;23.306;2023-08-07T04:53:31;94899.16;;;19.76;100.00
20119;BME280;10220;42.716;23.306;2023-08-07T04:55:59;94895.94;;;20.03;100.00
20119;BME280;10220;42.716;23.306;2023-08-07T04:58:24;94891.94;;;20.26;100.00
20119;BME280;10220;42.716;23.306;2023-08-07T05:00:57;94901.38;;;20.37;100.00
20119;BME280;10220;42.716;23.306;2023-08-07T05:03:26;94901.53;;;21.13;100.00
20119;BME280;10220;42.716;23.306;2023-08-07T05:05:59;94900.94;;;21.21;100.00
20119;BME280;10220;42.716;23.306;2023-08-07T05:08:25;94896.91;;;20.90;100.00
20119;BME280;10220;42.716;23.306;2023-08-07T05:10:50;94887.84;;;19.80;100.00
20119;BME280;10220;42.716;23.306;2023-08-07T05:13:16;94875.63;;;20.29;100.00
20119;BME280;10220;42.716;23.306;2023-08-07T05:15:47;94884.75;;;21.37;100.00
20119;BME280;10220;42.716;23.306;2023-08-07T05:18:12;94882.59;;;21.06;100.00
20119;BME280;10220;42.716;23.306;2023-08-07T05:20:38;94880.16;;;21.15;100.00
20119;BME280;10220;42.716;23.306;2023-08-07T05:23:03;94887.16;;;20.43;100.00
20119;BME280;10220;42.716;23.306;2023-08-07T05:25:28;94880.22;;;19.94;100.00
20119;BME280;10220;42.716;23.306;2023-08-07T05:27:54;94886.97;;;20.24;100.00
20119;BME280;10220;42.716;23.306;2023-08-07T05:30:19;94876.78;;;19.93;100.00
20119;BME280;10220;42.716;23.306;2023-08-07T05:32:45;94872.28;;;20.03;100.00
20119;BME280;10220;42.716;23.306;2023-08-07T05:35:10;94876.44;;;21.21;100.00
20119;BME280;10220;42.716;23.306;2023-08-07T05:37:36;94897.03;;;21.14;100.00
20119;BME280;10220;42.716;23.306;2023-08-07T05:40:02;94905.19;;;20.74;100.00
20119;BME280;10220;42.716;23.306;2023-08-07T05:42:28;94897.31;;;19.96;100.00
20119;BME280;10220;42.716;23.306;2023-08-07T05:44:53;94884.47;;;19.40;100.00
20119;BME280;10220;42.716;23.306;2023-08-07T05:47:19;94895.25;;;19.09;100.00
20119;BME280;10220;42.716;23.306;2023-08-07T05:49:45;94889.97;;;19.14;100.00
20119;BME280;10220;42.716;23.306;2023-08-07T05:52:10;94906.00;;;19.12;100.00
20119;BME280;10220;42.716;23.306;2023-08-07T05:54:35;94898.31;;;18.86;100.00
20119;BME280;10220;42.716;23.306;2023-08-07T05:57:01;94887.34;;;19.24;100.00
20119;BME280;10220;42.716;23.306;2023-08-07T05:59:26;94895.22;;;19.48;100.00
20119;BME280;10220;42.716;23.306;2023-08-07T06:01:53;94907.81;;;19.76;100.00
20119;BME280;10220;42.716;23.306;2023-08-07T06:04:18;94892.97;;;20.35;100.00
20119;BME280;10220;42.716;23.306;2023-08-07T06:06:44;94895.09;;;20.23;100.00
20119;BME280;10220;42.716;23.306;2023-08-07T06:09:11;94895.16;;;20.18;100.00
20119;BME280;10220;42.716;23.306;2023-08-07T06:11:36;94896.25;;;19.97;100.00
20119;BME280;10220;42.716;23.306;2023-08-07T06:14:02;94855.25;;;19.71;100.00
20119;BME280;10220;42.716;23.306;2023-08-07T06:16:27;94884.66;;;19.88;100.00
20119;BME280;10220;42.716;23.306;2023-08-07T06:18:53;94897.81;;;19.88;100.00
20119;BME280;10220;42.716;23.306;2023-08-07T06:21:19;94888.91;;;19.64;100.00
20119;BME280;10220;42.716;23.306;2023-08-07T06:23:45;94881.28;;;19.58;100.00
20119;BME280;10220;42.716;23.306;2023-08-07T06:26:11;94889.94;;;19.78;100.00
20119;BME280;10220;42.716;23.306;2023-08-07T06:28:36;94881.94;;;20.23;100.00
20119;BME280;10220;42.716;23.306;2023-08-07T06:31:03;94878.88;;;19.96;100.00
20119;BME280;10220;42.716;23.306;2023-08-07T06:33:29;94884.94;;;19.77;100.00
20119;BME280;10220;42.716;23.306;2023-08-07T06:35:54;94875.19;;;19.87;100.00
20119;BME280;10220;42.716;23.306;2023-08-07T06:38:19;94882.56;;;19.90;100.00
20119;BME280;10220;42.716;23.306;2023-08-07T06:40:45;94867.03;;;19.84;100.00
20119;BME280;10220;42.716;23.306;2023-08-07T06:43:10;94878.81;;;20.16;100.00
20119;BME280;10220;42.716;23.306;2023-08-07T06:45:36;94892.72;;;20.31;100.00
20119;BME280;10220;42.716;23.306;2023-08-07T06:48:02;94885.94;;;20.15;100.00
20119;BME280;10220;42.716;23.306;2023-08-07T06:50:27;94890.69;;;20.76;100.00
20119;BME280;10220;42.716;23.306;2023-08-07T06:52:53;94884.41;;;20.72;100.00
20119;BME280;10220;42.716;23.306;2023-08-07T06:55:19;94893.34;;;20.76;100.00
20119;BME280;10220;42.716;23.306;2023-08-07T06:57:45;94895.19;;;20.66;100.00
20119;BME280;10220;42.716;23.306;2023-08-07T07:00:10;94885.00;;;20.50;100.00
20119;BME280;10220;42.716;23.306;2023-08-07T07:02:36;94897.56;;;20.72;100.00
20119;BME280;10220;42.716;23.306;2023-08-07T07:05:02;94877.59;;;20.57;97.90
20119;BME280;10220;42.716;23.306;2023-08-07T07:07:27;94867.41;;;20.93;100.00
20119;BME280;10220;42.716;23.306;2023-08-07T07:09:53;94863.34;;;21.44;97.29
20119;BME280;10220;42.716;23.306;2023-08-07T07:12:18;94881.31;;;21.70;98.83
20119;BME280;10220;42.716;23.306;2023-08-07T07:14:44;94895.38;;;22.12;95.77
20119;BME280;10220;42.716;23.306;2023-08-07T07:17:09;94881.03;;;22.46;93.16
20119;BME280;10220;42.716;23.306;2023-08-07T07:19:35;94862.81;;;22.45;94.52
20119;BME280;10220;42.716;23.306;2023-08-07T07:22:00;94887.03;;;22.05;99.81
20119;BME280;10220;42.716;23.306;2023-08-07T07:24:25;94881.19;;;22.08;90.74
20119;BME280;10220;42.716;23.306;2023-08-07T07:26:51;94875.91;;;22.08;88.81
20119;BME280;10220;42.716;23.306;2023-08-07T07:29:17;94883.41;;;22.48;91.10
20119;BME280;10220;42.716;23.306;2023-08-07T07:31:43;94872.09;;;22.84;84.97
20119;BME280;10220;42.716;23.306;2023-08-07T07:34:09;94856.31;;;22.38;84.40
20119;BME280;10220;42.716;23.306;2023-08-07T07:36:34;94860.44;;;22.20;83.60
20119;BME280;10220;42.716;23.306;2023-08-07T07:39:00;94865.97;;;22.47;86.23
20119;BME280;10220;42.716;23.306;2023-08-07T07:41:25;94866.94;;;22.74;85.73
20119;BME280;10220;42.716;23.306;2023-08-07T07:43:50;94869.59;;;23.11;81.88
20119;BME280;10220;42.716;23.306;2023-08-07T07:46:16;94877.94;;;22.81;79.09
20119;BME280;10220;42.716;23.306;2023-08-07T07:48:41;94871.06;;;23.04;78.63
20119;BME280;10220;42.716;23.306;2023-08-07T07:51:07;94874.59;;;23.12;76.98
20119;BME280;10220;42.716;23.306;2023-08-07T07:53:33;94882.72;;;22.98;73.56
20119;BME280;10220;42.716;23.306;2023-08-07T07:55:59;94870.44;;;22.88;76.31
20119;BME280;10220;42.716;23.306;2023-08-07T07:58:24;94866.41;;;23.14;69.50
20119;BME280;10220;42.716;23.306;2023-08-07T08:00:50;94871.66;;;23.32;67.63
20119;BME280;10220;42.716;23.306;2023-08-07T08:03:19;94878.88;;;23.45;65.14
20119;BME280;10220;42.716;23.306;2023-08-07T08:05:46;94854.38;;;23.21;64.76
20119;BME280;10220;42.716;23.306;2023-08-07T08:08:13;94862.81;;;23.23;67.80
20119;BME280;10220;42.716;23.306;2023-08-07T08:10:39;94865.88;;;23.94;62.83
20119;BME280;10220;42.716;23.306;2023-08-07T08:13:04;94860.56;;;23.94;61.01
20119;BME280;10220;42.716;23.306;2023-08-07T08:15:30;94859.38;;;24.80;58.83
20119;BME280;10220;42.716;23.306;2023-08-07T08:17:55;94838.66;;;25.17;57.58
20119;BME280;10220;42.716;23.306;2023-08-07T08:20:21;94857.13;;;25.22;58.40
20119;BME280;10220;42.716;23.306;2023-08-07T08:22:47;94863.16;;;25.14;58.20
20119;BME280;10220;42.716;23.306;2023-08-07T08:25:13;94845.66;;;24.11;62.86
20119;BME280;10220;42.716;23.306;2023-08-07T08:27:39;94844.00;;;24.28;61.97
20119;BME280;10220;42.716;23.306;2023-08-07T08:30:05;94857.03;;;25.14;58.57
20119;BME280;10220;42.716;23.306;2023-08-07T08:32:31;94847.84;;;24.98;56.57
20119;BME280;10220;42.716;23.306;2023-08-07T08:34:57;94849.94;;;25.23;56.73
20119;BME280;10220;42.716;23.306;2023-08-07T08:37:22;94853.91;;;25.77;54.85
20119;BME280;10220;42.716;23.306;2023-08-07T08:39:48;94848.00;;;25.37;55.97
20119;BME280;10220;42.716;23.306;2023-08-07T08:42:14;94844.44;;;25.63;56.05
20119;BME280;10220;42.716;23.306;2023-08-07T08:44:40;94845.44;;;24.88;59.57
20119;BME280;10220;42.716;23.306;2023-08-07T08:47:07;94840.59;;;24.90;60.97
20119;BME280;10220;42.716;23.306;2023-08-07T08:49:49;94841.97;;;24.87;62.26
20119;BME280;10220;42.716;23.306;2023-08-07T08:52:16;94836.91;;;24.64;59.91
20119;BME280;10220;42.716;23.306;2023-08-07T08:54:43;94833.72;;;24.40;63.81
20119;BME280;10220;42.716;23.306;2023-08-07T08:57:09;94840.16;;;25.32;58.27
20119;BME280;10220;42.716;23.306;2023-08-07T08:59:36;94814.19;;;25.20;56.75
20119;BME280;10220;42.716;23.306;2023-08-07T09:02:02;94813.97;;;25.60;57.43
20119;BME280;10220;42.716;23.306;2023-08-07T09:04:27;94809.84;;;26.06;54.46
20119;BME280;10220;42.716;23.306;2023-08-07T09:06:53;94827.66;;;26.06;54.29
20119;BME280;10220;42.716;23.306;2023-08-07T09:09:20;94842.34;;;25.73;56.61
20119;BME280;10220;42.716;23.306;2023-08-07T09:11:47;94834.09;;;26.13;54.53
20119;BME280;10220;42.716;23.306;2023-08-07T09:14:16;94824.88;;;25.59;57.26
20119;BME280;10220;42.716;23.306;2023-08-07T09:16:45;94807.56;;;25.31;60.78
20119;BME280;10220;42.716;23.306;2023-08-07T09:19:11;94825.34;;;24.60;61.90
20119;BME280;10220;42.716;23.306;2023-08-07T09:21:36;94832.69;;;25.12;63.74
20119;BME280;10220;42.716;23.306;2023-08-07T09:24:02;94818.88;;;25.45;58.32
20119;BME280;10220;42.716;23.306;2023-08-07T09:26:28;94800.94;;;26.11;54.76
20119;BME280;10220;42.716;23.306;2023-08-07T09:28:53;94783.25;;;26.54;52.02
20119;BME280;10220;42.716;23.306;2023-08-07T09:31:23;94794.41;;;26.81;51.36
20119;BME280;10220;42.716;23.306;2023-08-07T09:33:51;94803.31;;;26.76;52.11
20119;BME280;10220;42.716;23.306;2023-08-07T09:36:17;94777.97;;;26.06;55.49
20119;BME280;10220;42.716;23.306;2023-08-07T09:38:43;94793.47;;;26.21;56.91
20119;BME280;10220;42.716;23.306;2023-08-07T09:41:08;94802.56;;;26.20;54.89
20119;BME280;10220;42.716;23.306;2023-08-07T09:43:35;94800.19;;;26.91;51.94
20119;BME280;10220;42.716;23.306;2023-08-07T09:46:05;94761.53;;;26.94;50.18
20119;BME280;10220;42.716;23.306;2023-08-07T09:48:31;94796.78;;;26.99;50.20
20119;BME280;10220;42.716;23.306;2023-08-07T09:51:02;94792.22;;;27.33;50.17
20119;BME280;10220;42.716;23.306;2023-08-07T09:53:29;94789.88;;;26.98;48.90
20119;BME280;10220;42.716;23.306;2023-08-07T09:55:55;94803.47;;;26.88;50.42
20119;BME280;10220;42.716;23.306;2023-08-07T09:58:21;94790.31;;;26.92;49.94
20119;BME280;10220;42.716;23.306;2023-08-07T10:00:47;94803.44;;;26.63;52.53
20119;BME280;10220;42.716;23.306;2023-08-07T10:03:14;94790.50;;;26.95;50.02
20119;BME280;10220;42.716;23.306;2023-08-07T10:05:41;94803.97;;;27.07;49.87
20119;BME280;10220;42.716;23.306;2023-08-07T10:08:08;94808.81;;;26.97;50.43
20119;BME280;10220;42.716;23.306;2023-08-07T10:10:34;94805.56;;;27.17;50.65
20119;BME280;10220;42.716;23.306;2023-08-07T10:13:03;94799.13;;;27.01;49.88
20119;BME280;10220;42.716;23.306;2023-08-07T10:15:29;94793.47;;;25.74;51.18
20119;BME280;10220;42.716;23.306;2023-08-07T10:17:56;94801.06;;;26.45;51.11
20119;BME280;10220;42.716;23.306;2023-08-07T10:20:22;94799.66;;;26.47;53.42
20119;BME280;10220;42.716;23.306;2023-08-07T10:22:50;94800.19;;;26.66;51.19
20119;BME280;10220;42.716;23.306;2023-08-07T10:25:20;94794.69;;;26.88;48.91
20119;BME280;10220;42.716;23.306;2023-08-07T10:27:48;94791.59;;;27.20;49.10
20119;BME280;10220;42.716;23.306;2023-08-07T10:30:16;94786.06;;;27.67;48.57
20119;BME280;10220;42.716;23.306;2023-08-07T10:32:44;94799.03;;;27.68;48.87
20119;BME280;10220;42.716;23.306;2023-08-07T10:35:23;94793.28;;;28.03;47.45
20119;BME280;10220;42.716;23.306;2023-08-07T10:37:51;94794.41;;;27.57;49.13
20119;BME280;10220;42.716;23.306;2023-08-07T10:40:16;94784.63;;;28.23;48.23
20119;BME280;10220;42.716;23.306;2023-08-07T10:45:22;94774.81;;;27.98;49.22
20119;BME280;10220;42.716;23.306;2023-08-07T10:50:34;94778.16;;;28.53;47.70
20119;BME280;10220;42.716;23.306;2023-08-07T10:53:01;94779.16;;;28.69;46.37
20119;BME280;10220;42.716;23.306;2023-08-07T10:55:31;94765.31;;;28.18;47.26
20119;BME280;10220;42.716;23.306;2023-08-07T10:57:56;94753.19;;;27.54;48.67
20119;BME280;10220;42.716;23.306;2023-08-07T11:00:26;94766.09;;;27.89;48.75
20119;BME280;10220;42.716;23.306;2023-08-07T11:02:52;94766.16;;;27.64;49.34
20119;BME280;10220;42.716;23.306;2023-08-07T11:05:17;94743.72;;;27.74;49.31
20119;BME280;10220;42.716;23.306;2023-08-07T11:07:43;94754.25;;;27.70;49.81
20119;BME280;10220;42.716;23.306;2023-08-07T11:10:13;94757.16;;;27.86;49.57
20119;BME280;10220;42.716;23.306;2023-08-07T11:12:40;94746.72;;;28.38;49.03
20119;BME280;10220;42.716;23.306;2023-08-07T11:15:06;94746.38;;;27.74;47.95
20119;BME280;10220;42.716;23.306;2023-08-07T11:17:32;94744.72;;;27.98;48.03
20119;BME280;10220;42.716;23.306;2023-08-07T11:19:58;94736.84;;;27.73;47.12
20119;BME280;10220;42.716;23.306;2023-08-07T11:22:24;94731.56;;;27.56;49.26
20119;BME280;10220;42.716;23.306;2023-08-07T11:24:53;94732.91;;;27.08;49.79
20119;BME280;10220;42.716;23.306;2023-08-07T11:27:21;94741.44;;;26.20;51.75
20119;BME280;10220;42.716;23.306;2023-08-07T11:29:48;94732.59;;;26.42;51.50
20119;BME280;10220;42.716;23.306;2023-08-07T11:32:14;94740.53;;;26.33;51.10
20119;BME280;10220;42.716;23.306;2023-08-07T11:34:39;94734.31;;;26.55;50.56
20119;BME280;10220;42.716;23.306;2023-08-07T11:37:05;94730.41;;;26.52;50.99
20119;BME280;10220;42.716;23.306;2023-08-07T11:39:30;94729.91;;;26.84;50.22
20119;BME280;10220;42.716;23.306;2023-08-07T11:41:56;94706.47;;;26.86;50.26
20119;BME280;10220;42.716;23.306;2023-08-07T11:44:22;94730.09;;;27.04;50.04
20119;BME280;10220;42.716;23.306;2023-08-07T11:46:50;94721.78;;;27.06;50.66
20119;BME280;10220;42.716;23.306;2023-08-07T11:49:16;94718.38;;;27.05;49.31
20119;BME280;10220;42.716;23.306;2023-08-07T11:51:42;94715.88;;;27.00;49.18
20119;BME280;10220;42.716;23.306;2023-08-07T11:54:14;94713.34;;;27.12;50.86
20119;BME280;10220;42.716;23.306;2023-08-07T11:56:41;94707.56;;;27.10;51.04
20119;BME280;10220;42.716;23.306;2023-08-07T11:59:08;94716.34;;;27.02;51.53
20119;BME280;10220;42.716;23.306;2023-08-07T12:01:37;94712.44;;;27.54;52.51
20119;BME280;10220;42.716;23.306;2023-08-07T12:06:33;94717.91;;;28.52;48.33
20119;BME280;10220;42.716;23.306;2023-08-07T12:09:01;94695.84;;;28.43;48.12
20119;BME280;10220;42.716;23.306;2023-08-07T12:11:29;94708.41;;;28.43;48.29
20119;BME280;10220;42.716;23.306;2023-08-07T12:13:54;94710.88;;;28.47;47.52
20119;BME280;10220;42.716;23.306;2023-08-07T12:16:20;94701.22;;;28.14;49.11
20119;BME280;10220;42.716;23.306;2023-08-07T12:18:50;94699.09;;;27.99;50.11
20119;BME280;10220;42.716;23.306;2023-08-07T12:21:21;94709.66;;;27.87;52.69
20119;BME280;10220;42.716;23.306;2023-08-07T12:23:49;94705.53;;;27.61;53.70
20119;BME280;10220;42.716;23.306;2023-08-07T12:26:15;94700.53;;;27.60;55.39
20119;BME280;10220;42.716;23.306;2023-08-07T12:28:41;94701.41;;;27.26;55.78
20119;BME280;10220;42.716;23.306;2023-08-07T12:31:06;94695.34;;;27.09;55.79
20119;BME280;10220;42.716;23.306;2023-08-07T12:33:41;94685.78;;;26.91;56.13
20119;BME280;10220;42.716;23.306;2023-08-07T12:36:09;94691.44;;;26.90;56.53
20119;BME280;10220;42.716;23.306;2023-08-07T12:38:35;94695.66;;;26.99;57.67
20119;BME280;10220;42.716;23.306;2023-08-07T12:41:01;94679.88;;;26.61;59.10
20119;BME280;10220;42.716;23.306;2023-08-07T12:43:28;94682.22;;;26.79;59.64
20119;BME280;10220;42.716;23.306;2023-08-07T12:45:54;94691.13;;;27.08;58.61
20119;BME280;10220;42.716;23.306;2023-08-07T12:48:19;94692.84;;;26.70;62.87
20119;BME280;10220;42.716;23.306;2023-08-07T12:50:45;94711.19;;;26.97;59.18
20119;BME280;10220;42.716;23.306;2023-08-07T12:53:10;94711.00;;;26.77;60.03